Time,TemperatureF,DewpointF,PressureIn,WindDirection,WindDirectionDegrees,WindSpeedMPH,WindSpeedGustMPH,Humidity,HourlyPrecipIn,Conditions,Clouds,dailyrainin,SoftwareType,DateUTC
2013-08-25 00:03:00,74.5,68.0,30.18,East,87,6.0,-999.0,81,-99.99,,,0.01,weatherlink.com 1.10,2013-08-25 05:03:00,
2013-08-25 00:18:00,74.2,68.0,30.19,East,100,6.0,-999.0,80,-99.99,,,0.01,weatherlink.com 1.10,2013-08-25 05:18:00,
2013-08-25 00:33:00,73.8,68.0,30.19,ENE,57,3.0,-999.0,81,-99.99,,,0.01,weatherlink.com 1.10,2013-08-25 05:33:00,
2013-08-25 00:48:00,73.3,67.0,30.19,SE,136,1.0,-999.0,81,-99.99,,,0.01,weatherlink.com 1.10,2013-08-25 05:48:00,
2013-08-25 01:03:00,72.9,67.0,30.19,NE,43,2.0,-999.0,82,-99.99,,,0.01,weatherlink.com 1.10,2013-08-25 06:03:00,
2013-08-25 01:18:00,72.5,67.0,30.19,NE,50,1.0,-999.0,82,-99.99,,,0.01,weatherlink.com 1.10,2013-08-25 06:18:00,
2013-08-25 01:33:00,72.2,67.0,30.20,ENE,74,1.0,-999.0,83,-99.99,,,0.01,weatherlink.com 1.10,2013-08-25 06:33:00,
2013-08-25 01:48:00,72.0,67.0,30.20,East,83,0.0,-999.0,83,-99.99,,,0.01,weatherlink.com 1.10,2013-08-25 06:48:00,
2013-08-25 02:03:00,71.5,67.0,30.20,East,84,0.0,-999.0,84,-99.99,,,0.01,weatherlink.com 1.10,2013-08-25 07:03:00,
2013-08-25 02:18:00,71.5,67.0,30.20,ENE,64,3.0,-999.0,84,-99.99,,,0.01,weatherlink.com 1.10,2013-08-25 07:18:00,
2013-08-25 02:33:00,71.2,67.0,30.21,ENE,75,0.0,-999.0,86,-99.99,,,0.01,weatherlink.com 1.10,2013-08-25 07:33:00,
2013-08-25 02:48:00,70.5,67.0,30.21,ENE,63,3.0,-999.0,87,-99.99,,,0.01,weatherlink.com 1.10,2013-08-25 07:48:00,
2013-08-25 03:03:00,70.3,66.0,30.21,East,88,4.0,-999.0,87,-99.99,,,0.00,weatherlink.com 1.10,2013-08-25 08:03:00,
2013-08-25 03:18:00,70.1,66.0,30.20,East,84,1.0,-999.0,87,-99.99,,,0.00,weatherlink.com 1.10,2013-08-25 08:18:00,
2013-08-25 03:33:00,69.8,67.0,30.20,East,84,0.0,-999.0,89,-99.99,,,0.00,weatherlink.com 1.10,2013-08-25 08:33:00,
2013-08-25 03:48:00,68.8,66.0,30.21,East,84,0.0,-999.0,91,-99.99,,,0.00,weatherlink.com 1.10,2013-08-25 08:48:00,
2013-08-25 04:03:00,67.9,66.0,30.21,East,84,0.0,-999.0,92,-99.99,,,0.00,weatherlink.com 1.10,2013-08-25 09:03:00,
2013-08-25 04:18:00,67.4,65.0,30.21,East,84,0.0,-999.0,93,-99.99,,,0.00,weatherlink.com 1.10,2013-08-25 09:18:00,
2013-08-25 04:33:00,67.1,65.0,30.21,East,84,0.0,-999.0,93,-99.99,,,0.00,weatherlink.com 1.10,2013-08-25 09:33:00,
2013-08-25 04:48:00,66.8,65.0,30.21,East,84,1.0,-999.0,94,-99.99,,,0.00,weatherlink.com 1.10,2013-08-25 09:48:00,
2013-08-25 05:03:00,66.7,65.0,30.22,East,84,2.0,-999.0,94,-99.99,,,0.00,weatherlink.com 1.10,2013-08-25 10:03:00,
2013-08-25 05:18:00,66.7,65.0,30.22,East,84,1.0,-999.0,94,-99.99,,,0.00,weatherlink.com 1.10,2013-08-25 10:18:00,
2013-08-25 05:33:00,66.4,65.0,30.22,East,84,0.0,-999.0,94,-99.99,,,0.00,weatherlink.com 1.10,2013-08-25 10:33:00,
2013-08-25 05:48:00,66.2,65.0,30.22,East,84,2.0,-999.0,94,-99.99,,,0.00,weatherlink.com 1.10,2013-08-25 10:48:00,
2013-08-25 06:03:00,65.9,64.0,30.22,East,84,1.0,-999.0,94,-99.99,,,0.00,weatherlink.com 1.10,2013-08-25 11:03:00,
2013-08-25 06:19:00,65.8,64.0,30.23,East,84,2.0,-999.0,95,-99.99,,,0.00,weatherlink.com 1.10,2013-08-25 11:19:00,
2013-08-25 06:34:00,66.1,65.0,30.24,NE,45,2.0,-999.0,95,-99.99,,,0.00,weatherlink.com 1.10,2013-08-25 11:34:00,
2013-08-25 06:49:00,66.2,65.0,30.24,NE,45,1.0,-999.0,95,-99.99,,,0.00,weatherlink.com 1.10,2013-08-25 11:49:00,
2013-08-25 07:04:00,66.5,65.0,30.25,NNE,32,2.0,-999.0,95,-99.99,,,0.00,weatherlink.com 1.10,2013-08-25 12:04:00,
2013-08-25 07:19:00,67.0,66.0,30.25,NE,36,3.0,-999.0,95,-99.99,,,0.00,weatherlink.com 1.10,2013-08-25 12:19:00,
2013-08-25 07:34:00,67.9,66.0,30.25,NNE,32,2.0,-999.0,94,-99.99,,,0.00,weatherlink.com 1.10,2013-08-25 12:34:00,
2013-08-25 07:49:00,68.9,67.0,30.25,NE,42,2.0,-999.0,92,-99.99,,,0.00,weatherlink.com 1.10,2013-08-25 12:49:00,
2013-08-25 08:04:00,70.1,67.0,30.26,NE,48,2.0,-999.0,89,-99.99,,,0.00,weatherlink.com 1.10,2013-08-25 13:04:00,
2013-08-25 08:19:00,71.2,67.0,30.27,NE,38,1.0,-999.0,86,-99.99,,,0.00,weatherlink.com 1.10,2013-08-25 13:19:00,
2013-08-25 08:34:00,72.4,67.0,30.27,NNE,22,7.0,-999.0,83,-99.99,,,0.00,weatherlink.com 1.10,2013-08-25 13:34:00,
2013-08-25 08:49:00,73.8,68.0,30.27,NNE,12,4.0,-999.0,82,-99.99,,,0.00,weatherlink.com 1.10,2013-08-25 13:49:00,
2013-08-25 09:04:00,75.3,68.0,30.28,East,95,6.0,-999.0,79,-99.99,,,0.00,weatherlink.com 1.10,2013-08-25 14:04:00,
2013-08-25 09:19:00,76.1,68.0,30.28,ENE,57,7.0,-999.0,77,-99.99,,,0.00,weatherlink.com 1.10,2013-08-25 14:19:00,
2013-08-25 09:34:00,76.3,68.0,30.28,SE,124,6.0,-999.0,76,-99.99,,,0.00,weatherlink.com 1.10,2013-08-25 14:34:00,
2013-08-25 09:49:00,77.0,68.0,30.28,NE,50,7.0,-999.0,74,-99.99,,,0.00,weatherlink.com 1.10,2013-08-25 14:49:00,
2013-08-25 10:04:00,77.8,69.0,30.29,East,90,1.0,-999.0,73,-99.99,,,0.00,weatherlink.com 1.10,2013-08-25 15:04:00,
2013-08-25 10:19:00,78.8,69.0,30.29,NE,38,4.0,-999.0,71,-99.99,,,0.00,weatherlink.com 1.10,2013-08-25 15:19:00,
2013-08-25 10:34:00,79.1,69.0,30.29,ESE,104,4.0,-999.0,70,-99.99,,,0.00,weatherlink.com 1.10,2013-08-25 15:34:00,
2013-08-25 10:49:00,78.7,68.0,30.28,ENE,62,3.0,-999.0,69,-99.99,,,0.00,weatherlink.com 1.10,2013-08-25 15:49:00,
2013-08-25 11:04:00,79.1,69.0,30.28,East,87,6.0,-999.0,71,-99.99,,,0.00,weatherlink.com 1.10,2013-08-25 16:04:00,
2013-08-25 11:19:00,80.0,69.0,30.27,ENE,67,4.0,-999.0,69,-99.99,,,0.00,weatherlink.com 1.10,2013-08-25 16:19:00,
2013-08-25 11:34:00,79.2,68.0,30.27,East,99,5.0,-999.0,69,-99.99,,,0.00,weatherlink.com 1.10,2013-08-25 16:34:00,
2013-08-25 11:49:00,80.0,69.0,30.26,East,97,5.0,-999.0,68,-99.99,,,0.00,weatherlink.com 1.10,2013-08-25 16:49:00,
2013-08-25 12:04:00,80.8,68.0,30.25,ENE,72,1.0,-999.0,66,-99.99,,,0.00,weatherlink.com 1.10,2013-08-25 17:04:00,
2013-08-25 12:19:00,80.6,68.0,30.25,East,83,1.0,-999.0,66,-99.99,,,0.00,weatherlink.com 1.10,2013-08-25 17:19:00,
2013-08-25 12:34:00,81.1,69.0,30.24,ENE,57,3.0,-999.0,66,-99.99,,,0.00,weatherlink.com 1.10,2013-08-25 17:34:00,
2013-08-25 12:49:00,81.5,70.0,30.23,SSW,205,0.0,-999.0,67,-99.99,,,0.00,weatherlink.com 1.10,2013-08-25 17:49:00,
2013-08-25 13:04:00,81.8,68.0,30.23,ENE,68,10.0,-999.0,63,-99.99,,,0.00,weatherlink.com 1.10,2013-08-25 18:04:00,
2013-08-25 13:19:00,81.7,68.0,30.22,NE,46,5.0,-999.0,64,-99.99,,,0.00,weatherlink.com 1.10,2013-08-25 18:19:00,
2013-08-25 13:34:00,81.9,68.0,30.22,ESE,115,2.0,-999.0,63,-99.99,,,0.00,weatherlink.com 1.10,2013-08-25 18:34:00,
2013-08-25 13:49:00,81.2,68.0,30.22,East,89,2.0,-999.0,64,-99.99,,,0.00,weatherlink.com 1.10,2013-08-25 18:49:00,
2013-08-25 14:04:00,81.7,68.0,30.21,East,82,5.0,-999.0,64,-99.99,,,0.00,weatherlink.com 1.10,2013-08-25 19:04:00,
2013-08-25 14:19:00,81.9,69.0,30.21,SSE,164,1.0,-999.0,64,-99.99,,,0.00,weatherlink.com 1.10,2013-08-25 19:19:00,
2013-08-25 14:34:00,82.2,68.0,30.20,NNE,30,0.0,-999.0,63,-99.99,,,0.00,weatherlink.com 1.10,2013-08-25 19:34:00,
2013-08-25 14:50:00,82.6,68.0,30.20,NNE,23,6.0,-999.0,61,-99.99,,,0.00,weatherlink.com 1.10,2013-08-25 19:50:00,
2013-08-25 15:05:00,83.0,70.0,30.20,SE,138,6.0,-999.0,64,-99.99,,,0.00,weatherlink.com 1.10,2013-08-25 20:05:00,
2013-08-25 15:20:00,83.3,66.0,30.19,East,89,6.0,-999.0,57,-99.99,,,0.00,weatherlink.com 1.10,2013-08-25 20:20:00,
2013-08-25 15:35:00,82.9,68.0,30.18,East,101,2.0,-999.0,61,-99.99,,,0.00,weatherlink.com 1.10,2013-08-25 20:35:00,
2013-08-25 15:50:00,82.1,66.0,30.18,NE,38,2.0,-999.0,59,-99.99,,,0.00,weatherlink.com 1.10,2013-08-25 20:50:00,
2013-08-25 16:05:00,81.9,67.0,30.18,East,84,1.0,-999.0,60,-99.99,,,0.00,weatherlink.com 1.10,2013-08-25 21:05:00,
2013-08-25 16:20:00,82.2,67.0,30.18,NNE,25,6.0,-999.0,60,-99.99,,,0.00,weatherlink.com 1.10,2013-08-25 21:20:00,
2013-08-25 16:35:00,81.7,66.0,30.18,East,84,2.0,-999.0,59,-99.99,,,0.00,weatherlink.com 1.10,2013-08-25 21:35:00,
2013-08-25 16:50:00,81.7,66.0,30.18,East,89,3.0,-999.0,59,-99.99,,,0.00,weatherlink.com 1.10,2013-08-25 21:50:00,
2013-08-25 17:05:00,81.5,65.0,30.18,NE,42,1.0,-999.0,57,-99.99,,,0.00,weatherlink.com 1.10,2013-08-25 22:05:00,
2013-08-25 17:20:00,81.4,65.0,30.18,NE,51,4.0,-999.0,58,-99.99,,,0.00,weatherlink.com 1.10,2013-08-25 22:20:00,
2013-08-25 17:35:00,81.2,67.0,30.18,East,82,3.0,-999.0,62,-99.99,,,0.00,weatherlink.com 1.10,2013-08-25 22:35:00,
2013-08-25 17:50:00,80.7,66.0,30.18,ENE,63,2.0,-999.0,62,-99.99,,,0.00,weatherlink.com 1.10,2013-08-25 22:50:00,
2013-08-25 18:05:00,80.2,68.0,30.19,East,92,0.0,-999.0,66,-99.99,,,0.00,weatherlink.com 1.10,2013-08-25 23:05:00,
2013-08-25 18:20:00,79.1,70.0,30.19,East,92,0.0,-999.0,73,-99.99,,,0.00,weatherlink.com 1.10,2013-08-25 23:20:00,
2013-08-25 18:35:00,77.3,69.0,30.19,East,92,0.0,-999.0,76,-99.99,,,0.00,weatherlink.com 1.10,2013-08-25 23:35:00,
2013-08-25 18:50:00,75.9,69.0,30.20,East,92,0.0,-999.0,78,-99.99,,,0.00,weatherlink.com 1.10,2013-08-25 23:50:00,
2013-08-25 19:05:00,74.7,68.0,30.20,East,92,0.0,-999.0,80,-99.99,,,0.00,weatherlink.com 1.10,2013-08-26 00:05:00,
2013-08-25 19:20:00,73.5,66.0,30.20,ESE,107,4.0,-999.0,76,-99.99,,,0.00,weatherlink.com 1.10,2013-08-26 00:20:00,
2013-08-25 19:35:00,74.6,65.0,30.20,East,93,5.0,-999.0,71,-99.99,,,0.00,weatherlink.com 1.10,2013-08-26 00:35:00,
2013-08-25 19:50:00,76.1,65.0,30.21,SSE,151,5.0,-999.0,68,-99.99,,,0.00,weatherlink.com 1.10,2013-08-26 00:50:00,
2013-08-25 20:05:00,77.0,65.0,30.22,ESE,117,5.0,-999.0,66,-99.99,,,0.00,weatherlink.com 1.10,2013-08-26 01:05:00,
2013-08-25 20:20:00,76.9,65.0,30.22,ESE,106,2.0,-999.0,66,-99.99,,,0.00,weatherlink.com 1.10,2013-08-26 01:20:00,
2013-08-25 20:35:00,76.7,64.0,30.22,SE,136,8.0,-999.0,66,-99.99,,,0.00,weatherlink.com 1.10,2013-08-26 01:35:00,
2013-08-25 20:50:00,76.8,64.0,30.23,ESE,118,9.0,-999.0,65,-99.99,,,0.00,weatherlink.com 1.10,2013-08-26 01:50:00,
2013-08-25 21:05:00,77.0,65.0,30.23,ESE,108,4.0,-999.0,66,-99.99,,,0.00,weatherlink.com 1.10,2013-08-26 02:05:00,
2013-08-25 21:20:00,76.6,65.0,30.23,East,81,4.0,-999.0,67,-99.99,,,0.00,weatherlink.com 1.10,2013-08-26 02:20:00,
2013-08-25 21:35:00,76.2,64.0,30.23,ESE,109,11.0,-999.0,67,-99.99,,,0.00,weatherlink.com 1.10,2013-08-26 02:35:00,
2013-08-25 21:50:00,76.2,65.0,30.23,ESE,109,2.0,-999.0,68,-99.99,,,0.00,weatherlink.com 1.10,2013-08-26 02:50:00,
2013-08-25 22:05:00,75.6,65.0,30.23,ESE,109,4.0,-999.0,70,-99.99,,,0.00,weatherlink.com 1.10,2013-08-26 03:05:00,
2013-08-25 22:20:00,74.3,66.0,30.24,SSE,152,1.0,-999.0,74,-99.99,,,0.00,weatherlink.com 1.10,2013-08-26 03:20:00,
2013-08-25 22:35:00,72.3,65.0,30.24,SSE,155,0.0,-999.0,78,-99.99,,,0.00,weatherlink.com 1.10,2013-08-26 03:35:00,
2013-08-25 22:50:00,70.7,65.0,30.23,East,86,2.0,-999.0,81,-99.99,,,0.00,weatherlink.com 1.10,2013-08-26 03:50:00,
2013-08-25 23:05:00,70.5,64.0,30.24,ENE,75,1.0,-999.0,81,-99.99,,,0.00,weatherlink.com 1.10,2013-08-26 04:05:00,
2013-08-25 23:20:00,70.8,64.0,30.25,SE,134,2.0,-999.0,80,-99.99,,,0.00,weatherlink.com 1.10,2013-08-26 04:20:00,
2013-08-25 23:35:00,71.3,65.0,30.24,SW,222,1.0,-999.0,79,-99.99,,,0.00,weatherlink.com 1.10,2013-08-26 04:35:00,
2013-08-25 23:50:00,71.4,64.0,30.24,ESE,123,4.0,-999.0,77,-99.99,,,0.00,weatherlink.com 1.10,2013-08-26 04:50:00,